Time;durP1;ratioP1;P1;durP2;ratioP2;P2;SDS_P1;SDS_P2;PMS_P1;PMS_P2;Temp;Humidity;BMP_temperature;BMP_pressure;BME280_temperature;BME280_humidity;BME280_pressure;Samples;Min_cycle;Max_cycle;Signal;HPM_P1;HPM_P2
2022/01/05 00:01:41;;;;;;;2.87;1.90;;;14.10;58.40;;;;;;5114766;28;20526;-80
2022/01/05 00:04:09;;;;;;;2.97;1.97;;;14.10;58.40;;;;;;5114693;28;20432;-80
2022/01/05 00:06:37;;;;;;;2.87;2.00;;;14.10;58.40;;;;;;5115086;28;20435;-80
2022/01/05 00:09:05;;;;;;;2.30;2.10;;;14.10;58.20;;;;;;5114998;28;20424;-80
2022/01/05 00:11:38;;;;;;;1.90;1.67;;;14.10;58.40;;;;;;5114890;28;20532;-80
2022/01/05 00:14:06;;;;;;;2.67;2.10;;;14.00;58.30;;;;;;5114528;28;20539;-81
2022/01/05 00:16:34;;;;;;;4.67;2.33;;;14.00;58.40;;;;;;5114376;28;20523;-80
2022/01/05 00:19:03;;;;;;;4.87;2.13;;;14.00;58.30;;;;;;5114760;28;20507;-80
2022/01/05 00:21:32;;;;;;;4.67;2.30;;;14.00;58.20;;;;;;5114587;28;20468;-80
2022/01/05 00:23:59;;;;;;;4.03;2.37;;;14.00;58.10;;;;;;5114457;28;20504;-79
2022/01/05 00:26:27;;;;;;;4.87;2.20;;;14.00;58.20;;;;;;5114546;28;20468;-79
2022/01/05 00:28:56;;;;;;;4.30;2.13;;;14.00;58.20;;;;;;5114284;28;20523;-79
2022/01/05 00:31:23;;;;;;;3.30;1.80;;;14.00;58.10;;;;;;5114334;28;20523;-80
2022/01/05 00:33:52;;;;;;;5.20;1.90;;;14.00;58.00;;;;;;5114080;28;20949;-80
2022/01/05 00:36:21;;;;;;;3.63;2.37;;;14.00;58.00;;;;;;5114485;28;20535;-80
2022/01/05 00:38:49;;;;;;;2.60;2.20;;;13.90;57.90;;;;;;5114339;28;20519;-79
2022/01/05 00:41:17;;;;;;;6.63;2.43;;;13.90;57.90;;;;;;5114192;28;20436;-80
2022/01/05 00:43:45;;;;;;;2.33;1.90;;;13.90;58.00;;;;;;5113326;28;20442;-80
2022/01/05 00:46:13;;;;;;;2.30;1.80;;;13.90;57.90;;;;;;5114236;28;20478;-80
2022/01/05 00:48:41;;;;;;;3.10;1.93;;;13.90;57.90;;;;;;5114201;28;20460;-80
2022/01/05 00:51:10;;;;;;;2.87;1.90;;;13.90;57.80;;;;;;5114306;28;20534;-81
2022/01/05 00:53:39;;;;;;;2.60;2.00;;;13.80;57.70;;;;;;5116627;28;20534;-80
2022/01/05 00:56:07;;;;;;;3.33;2.00;;;13.80;57.70;;;;;;5116503;28;20495;-81
2022/01/05 00:58:35;;;;;;;3.20;1.87;;;13.80;57.70;;;;;;5116813;28;20520;-80
2022/01/05 01:01:03;;;;;;;2.87;2.37;;;13.80;57.80;;;;;;5116497;28;20813;-81
2022/01/05 01:03:31;;;;;;;4.63;2.10;;;13.80;57.80;;;;;;5116239;28;20432;-82
2022/01/05 01:06:00;;;;;;;2.60;2.17;;;13.80;57.70;;;;;;5116266;28;20539;-81
2022/01/05 01:08:28;;;;;;;2.13;1.60;;;13.80;57.60;;;;;;5116597;28;20451;-81
2022/01/05 01:10:57;;;;;;;2.00;1.73;;;13.80;57.50;;;;;;5115859;28;20511;-81
2022/01/05 01:13:25;;;;;;;2.60;2.00;;;13.80;57.40;;;;;;5115828;28;20455;-82
2022/01/05 01:15:53;;;;;;;3.67;2.07;;;13.70;57.30;;;;;;5115508;28;20503;-80
2022/01/05 01:18:22;;;;;;;3.57;1.90;;;13.80;57.40;;;;;;5115955;28;20431;-80
2022/01/05 01:20:50;;;;;;;3.00;1.93;;;13.80;57.40;;;;;;5115568;28;20531;-80
2022/01/05 01:23:19;;;;;;;6.00;1.97;;;13.70;57.30;;;;;;5115614;28;20463;-80
2022/01/05 01:25:47;;;;;;;3.03;2.13;;;13.70;57.40;;;;;;5116239;28;20496;-80
2022/01/05 01:28:16;;;;;;;2.77;2.00;;;13.70;57.40;;;;;;5116040;28;20440;-81
2022/01/05 01:30:44;;;;;;;2.70;1.90;;;13.70;57.30;;;;;;5115912;28;20517;-80
2022/01/05 01:33:12;;;;;;;2.20;1.70;;;13.70;57.10;;;;;;5116054;28;20440;-81
2022/01/05 01:35:40;;;;;;;5.67;2.07;;;13.70;57.20;;;;;;5115595;28;20487;-80
2022/01/05 01:38:08;;;;;;;4.70;2.00;;;13.70;57.20;;;;;;5115626;28;20500;-82
2022/01/05 01:40:37;;;;;;;3.67;1.90;;;13.70;57.30;;;;;;5115552;28;20449;-80
2022/01/05 01:43:05;;;;;;;3.33;1.50;;;13.60;57.20;;;;;;5115183;28;20468;-80
2022/01/05 01:45:35;;;;;;;2.73;1.77;;;13.60;57.30;;;;;;5115122;28;20507;-81
2022/01/05 01:48:03;;;;;;;4.00;2.00;;;13.60;57.30;;;;;;5115859;28;20433;-81
2022/01/05 01:50:31;;;;;;;1.90;1.80;;;13.60;57.20;;;;;;5115870;28;20511;-80
2022/01/05 01:53:00;;;;;;;1.67;1.43;;;13.60;57.20;;;;;;5115522;28;20470;-80
2022/01/05 01:55:28;;;;;;;2.80;1.77;;;13.60;57.20;;;;;;5115074;28;20478;-80
2022/01/05 01:57:56;;;;;;;4.50;2.20;;;13.60;57.10;;;;;;5115240;28;20440;-80
2022/01/05 02:00:24;;;;;;;4.10;2.27;;;13.50;57.10;;;;;;5115415;28;20519;-80
2022/01/05 02:02:53;;;;;;;3.90;1.90;;;13.50;57.10;;;;;;5115143;28;20523;-80
2022/01/05 02:05:21;;;;;;;3.20;1.80;;;13.50;57.20;;;;;;5115287;28;20444;-82
2022/01/05 02:07:49;;;;;;;5.47;2.20;;;13.50;57.10;;;;;;5115066;28;20432;-82
2022/01/05 02:10:17;;;;;;;2.80;1.90;;;13.50;57.10;;;;;;5115701;28;20455;-80
2022/01/05 02:12:46;;;;;;;3.30;2.03;;;13.50;57.10;;;;;;5115227;28;20994;-81
2022/01/05 02:15:15;;;;;;;2.00;1.63;;;13.50;57.00;;;;;;5115109;28;20511;-80
2022/01/05 02:17:52;;;;;;;3.23;1.93;;;13.50;57.00;;;;;;5115389;28;20515;-80
2022/01/05 02:20:22;;;;;;;3.77;2.03;;;13.50;57.00;;;;;;5115325;28;20561;-80
2022/01/05 02:22:52;;;;;;;3.93;2.17;;;13.50;57.00;;;;;;5114813;28;20467;-80
2022/01/05 02:25:20;;;;;;;2.40;1.80;;;13.50;56.90;;;;;;5114952;28;20558;-81
2022/01/05 02:27:48;;;;;;;2.40;1.80;;;13.50;56.80;;;;;;5114682;28;20451;-82
2022/01/05 02:30:19;;;;;;;3.87;2.00;;;13.50;56.90;;;;;;5115252;28;20468;-81
2022/01/05 02:32:49;;;;;;;2.60;2.17;;;13.50;56.90;;;;;;5115130;28;20430;-80
2022/01/05 02:35:17;;;;;;;2.30;1.63;;;13.50;56.80;;;;;;5115576;28;20546;-80
2022/01/05 02:37:46;;;;;;;4.83;1.70;;;13.50;56.80;;;;;;5116858;28;20496;-80
2022/01/05 02:40:17;;;;;;;2.20;1.60;;;13.40;56.70;;;;;;5116291;28;20442;-80
2022/01/05 02:42:45;;;;;;;3.57;1.40;;;13.40;56.90;;;;;;5115607;28;20442;-80
2022/01/05 02:45:14;;;;;;;2.13;1.63;;;13.40;56.80;;;;;;5115130;28;20478;-80
2022/01/05 02:47:42;;;;;;;2.50;1.90;;;13.40;56.80;;;;;;5114886;28;20474;-81
2022/01/05 02:50:11;;;;;;;2.03;1.77;;;13.40;56.80;;;;;;5114926;28;20459;-80
2022/01/05 02:52:39;;;;;;;1.60;1.50;;;13.40;56.80;;;;;;5114861;28;20455;-81
2022/01/05 02:55:08;;;;;;;4.83;1.70;;;13.40;56.80;;;;;;5114901;28;20548;-80
2022/01/05 02:57:37;;;;;;;1.90;1.70;;;13.40;56.70;;;;;;5115605;28;20503;-80
2022/01/05 03:00:08;;;;;;;2.20;1.80;;;13.40;56.80;;;;;;5115471;28;20507;-81
2022/01/05 03:02:36;;;;;;;4.87;1.50;;;13.40;56.70;;;;;;5114861;28;20471;-80
2022/01/05 03:05:05;;;;;;;2.40;1.70;;;13.40;56.70;;;;;;5114518;28;20460;-80
2022/01/05 03:07:37;;;;;;;5.23;2.33;;;13.40;56.60;;;;;;5116433;28;20528;-80
2022/01/05 03:10:06;;;;;;;4.07;1.90;;;13.40;56.50;;;;;;5118305;28;20476;-81
2022/01/05 03:12:34;;;;;;;2.67;1.70;;;13.40;56.60;;;;;;5118250;28;20542;-80
2022/01/05 03:15:04;;;;;;;8.13;1.90;;;13.40;56.70;;;;;;5118703;28;20487;-80
2022/01/05 03:17:33;;;;;;;1.70;1.60;;;13.40;56.70;;;;;;5118196;28;20468;-80
2022/01/05 03:20:00;;;;;;;2.60;1.83;;;13.40;56.70;;;;;;5118340;28;20522;-80
2022/01/05 03:22:29;;;;;;;3.00;1.93;;;13.40;56.60;;;;;;5118427;28;20507;-80
2022/01/05 03:24:56;;;;;;;2.37;1.63;;;13.40;57.20;;;;;;5118021;28;20488;-80
2022/01/05 03:27:25;;;;;;;2.30;1.53;;;13.40;56.50;;;;;;5117797;28;20543;-80
2022/01/05 03:29:52;;;;;;;5.10;1.70;;;13.40;56.50;;;;;;5118106;28;20484;-80
2022/01/05 03:32:23;;;;;;;2.60;1.70;;;13.30;56.50;;;;;;5117678;28;20462;-80
2022/01/05 03:34:52;;;;;;;3.67;1.67;;;13.30;56.60;;;;;;5117579;28;20539;-80
2022/01/05 03:37:20;;;;;;;2.63;1.77;;;13.40;56.60;;;;;;5117419;28;20442;-80
2022/01/05 03:39:48;;;;;;;1.70;1.60;;;13.30;56.30;;;;;;5118124;28;20504;-80
2022/01/05 03:42:16;;;;;;;2.37;1.10;;;13.30;56.40;;;;;;5117339;28;20470;-80
2022/01/05 03:44:44;;;;;;;4.00;1.83;;;13.30;56.40;;;;;;5117206;28;20555;-80
2022/01/05 03:47:12;;;;;;;5.47;2.10;;;13.30;56.60;;;;;;5117115;28;20516;-80
2022/01/05 03:49:42;;;;;;;3.47;2.00;;;13.30;56.60;;;;;;5117426;28;20519;-80
2022/01/05 03:52:09;;;;;;;2.07;1.50;;;13.30;56.50;;;;;;5116970;28;20531;-80
2022/01/05 03:54:37;;;;;;;3.20;1.83;;;13.40;56.60;;;;;;5117072;28;20538;-80
2022/01/05 03:57:06;;;;;;;2.27;1.57;;;13.30;57.00;;;;;;5117417;28;20471;-80
2022/01/05 03:59:34;;;;;;;2.20;1.30;;;13.30;56.60;;;;;;5116923;28;20432;-81
2022/01/05 04:02:04;;;;;;;3.83;1.87;;;13.30;56.60;;;;;;5117186;28;20428;-80
2022/01/05 04:04:32;;;;;;;2.63;1.53;;;13.30;56.50;;;;;;5117373;28;20447;-80
2022/01/05 04:07:01;;;;;;;4.17;1.57;;;13.30;56.50;;;;;;5116743;28;20558;-80
2022/01/05 04:09:30;;;;;;;6.37;2.10;;;13.30;56.50;;;;;;5117588;28;20502;-80
2022/01/05 04:11:58;;;;;;;4.50;1.97;;;13.30;56.60;;;;;;5120364;28;20438;-82
2022/01/05 04:14:26;;;;;;;2.73;1.50;;;13.30;56.40;;;;;;5119236;28;20898;-81
2022/01/05 04:16:54;;;;;;;3.10;1.90;;;13.30;56.40;;;;;;5119054;28;20507;-80
2022/01/05 04:19:23;;;;;;;4.77;2.17;;;13.40;56.60;;;;;;5119217;28;20434;-81
2022/01/05 04:21:51;;;;;;;2.87;1.47;;;13.30;56.50;;;;;;5114702;28;20471;-79
2022/01/05 04:24:21;;;;;;;2.30;1.60;;;13.30;56.50;;;;;;5113932;28;20460;-79
2022/01/05 04:26:48;;;;;;;2.13;1.40;;;13.30;56.60;;;;;;5116244;28;20532;-81
2022/01/05 04:29:17;;;;;;;2.63;1.93;;;13.30;56.60;;;;;;5118424;28;20493;-82
2022/01/05 04:31:46;;;;;;;5.53;1.90;;;13.20;56.60;;;;;;5119419;28;20586;-81
2022/01/05 04:34:14;;;;;;;2.10;1.30;;;13.30;56.70;;;;;;5114373;28;20463;-80
2022/01/05 04:37:02;;;;;;;2.83;1.50;;;13.30;56.60;;;;;;5113643;28;20424;-80
2022/01/05 04:39:31;;;;;;;4.83;1.80;;;13.30;56.40;;;;;;5113649;28;20516;-79
2022/01/05 04:41:59;;;;;;;2.73;1.57;;;13.30;56.50;;;;;;5114133;28;20534;-80
2022/01/05 04:44:28;;;;;;;3.90;1.90;;;13.30;56.60;;;;;;5113552;28;20460;-79
2022/01/05 04:46:55;;;;;;;4.70;1.53;;;13.30;56.60;;;;;;5113319;28;22920;-80
2022/01/05 04:49:24;;;;;;;2.03;1.50;;;13.20;56.50;;;;;;5114875;28;20440;-81
2022/01/05 04:51:52;;;;;;;2.87;1.53;;;13.30;56.60;;;;;;5113389;28;20458;-79
2022/01/05 04:54:19;;;;;;;3.10;1.70;;;13.30;56.50;;;;;;5113340;28;20456;-79
2022/01/05 04:56:49;;;;;;;3.37;1.73;;;13.30;56.60;;;;;;5115436;28;20527;-79
2022/01/05 04:59:17;;;;;;;3.70;1.60;;;13.20;56.40;;;;;;5113494;28;20428;-79
2022/01/05 05:01:45;;;;;;;4.97;1.87;;;13.30;56.50;;;;;;5113361;28;20527;-79
2022/01/05 05:04:13;;;;;;;9.73;2.10;;;13.30;56.50;;;;;;5113299;28;20494;-79
2022/01/05 05:06:41;;;;;;;2.03;1.80;;;13.20;56.50;;;;;;5113314;28;20523;-78
2022/01/05 05:09:09;;;;;;;6.27;2.23;;;13.30;56.60;;;;;;5113058;28;20475;-79
2022/01/05 05:11:37;;;;;;;4.03;1.60;;;13.30;56.60;;;;;;5113354;28;20467;-79
2022/01/05 05:14:07;;;;;;;3.20;1.50;;;13.30;56.60;;;;;;5113019;28;20436;-79
2022/01/05 05:16:35;;;;;;;2.57;1.80;;;13.20;56.40;;;;;;5113273;28;20519;-79
2022/01/05 05:19:03;;;;;;;3.10;1.70;;;13.20;56.50;;;;;;5112857;28;20439;-78
2022/01/05 05:21:31;;;;;;;5.27;1.60;;;13.20;56.40;;;;;;5113233;28;20503;-79
2022/01/05 05:23:58;;;;;;;3.63;1.67;;;13.20;56.50;;;;;;5112851;28;20440;-79
2022/01/05 05:26:27;;;;;;;3.63;1.60;;;13.20;56.50;;;;;;5112653;28;20518;-79
2022/01/05 05:28:55;;;;;;;4.63;1.60;;;13.20;56.60;;;;;;5112636;28;20478;-79
2022/01/05 05:31:24;;;;;;;3.67;1.70;;;13.20;56.50;;;;;;5112491;28;20420;-79
2022/01/05 05:33:52;;;;;;;7.40;1.90;;;13.20;56.50;;;;;;5112655;28;20525;-79
2022/01/05 05:36:21;;;;;;;5.40;2.07;;;13.20;56.40;;;;;;5113405;28;20475;-80
2022/01/05 05:38:48;;;;;;;3.73;1.53;;;13.20;57.10;;;;;;5112674;28;20508;-79
2022/01/05 05:41:17;;;;;;;4.20;1.97;;;13.20;56.50;;;;;;5112859;28;20530;-80
2022/01/05 05:43:48;;;;;;;5.10;2.03;;;13.20;56.70;;;;;;5112824;28;20515;-80
2022/01/05 05:46:16;;;;;;;4.43;1.63;;;13.20;56.50;;;;;;5112953;28;20539;-79
2022/01/05 05:48:45;;;;;;;3.00;1.70;;;13.20;56.60;;;;;;5112671;28;21009;-79
2022/01/05 05:51:13;;;;;;;5.50;2.03;;;13.10;56.50;;;;;;5113111;28;21009;-79
2022/01/05 05:53:41;;;;;;;4.73;1.90;;;13.20;56.60;;;;;;5112753;28;20538;-79
2022/01/05 05:56:09;;;;;;;4.23;1.83;;;13.20;56.60;;;;;;5112750;28;20551;-80
2022/01/05 05:58:37;;;;;;;4.60;1.63;;;13.10;56.50;;;;;;5112665;28;20957;-80
2022/01/05 06:01:05;;;;;;;2.93;1.60;;;13.20;56.40;;;;;;5112850;28;20440;-79
2022/01/05 06:03:34;;;;;;;6.10;2.00;;;13.10;56.40;;;;;;5112620;28;20440;-79
2022/01/05 06:06:03;;;;;;;4.23;1.80;;;13.10;56.40;;;;;;5112289;28;20990;-80
2022/01/05 06:08:31;;;;;;;3.40;1.57;;;13.20;56.60;;;;;;5112088;28;20506;-79
2022/01/05 06:10:59;;;;;;;6.73;2.03;;;13.10;56.40;;;;;;5112338;28;20475;-79
2022/01/05 06:13:27;;;;;;;3.73;1.40;;;13.10;56.50;;;;;;5112812;28;20489;-80
2022/01/05 06:15:55;;;;;;;4.43;1.67;;;13.20;56.60;;;;;;5113559;28;20672;-79
2022/01/05 06:18:23;;;;;;;4.03;1.97;;;13.20;56.50;;;;;;5112579;28;20440;-79
2022/01/05 06:20:51;;;;;;;3.97;1.80;;;13.20;56.50;;;;;;5112321;28;20464;-80
2022/01/05 06:23:20;;;;;;;3.43;2.00;;;13.20;56.60;;;;;;5112478;28;20455;-79
2022/01/05 06:25:48;;;;;;;7.10;2.00;;;13.20;56.50;;;;;;5112198;28;20480;-80
2022/01/05 06:28:16;;;;;;;2.70;1.50;;;13.20;56.60;;;;;;5112173;28;20479;-81
2022/01/05 06:30:44;;;;;;;3.30;1.83;;;13.20;56.60;;;;;;5112286;28;20859;-79
2022/01/05 06:33:12;;;;;;;6.20;1.90;;;13.20;56.60;;;;;;5112244;28;20508;-80
2022/01/05 06:35:41;;;;;;;6.17;1.73;;;13.20;56.60;;;;;;5112297;28;20547;-79
2022/01/05 06:38:08;;;;;;;4.67;1.47;;;13.20;56.70;;;;;;5112155;28;20443;-79
2022/01/05 06:40:38;;;;;;;3.43;1.60;;;13.20;56.70;;;;;;5112021;28;20450;-79
2022/01/05 06:43:06;;;;;;;5.03;1.87;;;13.20;56.70;;;;;;5114793;28;20572;-80
2022/01/05 06:45:34;;;;;;;3.00;2.00;;;13.20;56.70;;;;;;5116177;28;20542;-79
2022/01/05 06:48:02;;;;;;;5.83;2.13;;;13.20;57.30;;;;;;5116310;28;20588;-79
2022/01/05 06:50:31;;;;;;;4.27;1.57;;;13.20;56.80;;;;;;5116403;28;20930;-80
2022/01/05 06:52:59;;;;;;;5.20;2.40;;;13.20;56.70;;;;;;5116202;28;20431;-80
2022/01/05 06:55:27;;;;;;;5.20;1.80;;;13.20;56.80;;;;;;5116237;28;20551;-80
2022/01/05 06:57:56;;;;;;;10.00;2.50;;;13.30;56.80;;;;;;5116189;28;20439;-79
2022/01/05 07:00:26;;;;;;;2.77;1.67;;;13.20;56.80;;;;;;5115947;28;20518;-79
2022/01/05 07:02:54;;;;;;;4.03;1.70;;;13.30;57.00;;;;;;5116030;28;20953;-79
2022/01/05 07:05:22;;;;;;;4.53;1.67;;;13.30;57.10;;;;;;5116008;28;21001;-79
2022/01/05 07:07:50;;;;;;;6.27;1.80;;;13.30;57.00;;;;;;5115663;28;20478;-79
2022/01/05 07:10:18;;;;;;;5.50;2.20;;;13.30;57.10;;;;;;5115283;28;21070;-79
2022/01/05 07:12:47;;;;;;;5.63;1.73;;;13.30;57.00;;;;;;5118358;28;20527;-79
2022/01/05 07:15:16;;;;;;;7.03;2.00;;;13.30;57.10;;;;;;5118055;28;20559;-80
2022/01/05 07:17:44;;;;;;;7.10;2.00;;;13.30;57.10;;;;;;5118033;28;20436;-80
2022/01/05 07:20:13;;;;;;;5.10;2.00;;;13.30;57.00;;;;;;5118179;28;20507;-80
2022/01/05 07:22:41;;;;;;;3.00;1.60;;;13.30;57.10;;;;;;5118091;28;20524;-80
2022/01/05 07:25:09;;;;;;;8.17;1.63;;;13.30;57.10;;;;;;5118487;28;20454;-80
2022/01/05 07:27:37;;;;;;;6.03;1.87;;;13.30;57.00;;;;;;5118426;28;20522;-80
2022/01/05 07:30:07;;;;;;;6.20;1.90;;;13.30;57.10;;;;;;5118279;28;20566;-80
2022/01/05 07:32:36;;;;;;;4.07;1.53;;;13.30;57.20;;;;;;5117912;28;20471;-80
2022/01/05 07:35:04;;;;;;;6.00;1.70;;;13.30;57.20;;;;;;5116655;28;20534;-80
2022/01/05 07:37:32;;;;;;;4.70;2.10;;;13.30;57.20;;;;;;5117824;28;20503;-80
2022/01/05 07:40:00;;;;;;;6.53;1.80;;;13.30;57.30;;;;;;5117974;28;20466;-79
2022/01/05 07:42:33;;;;;;;4.47;2.10;;;13.30;57.20;;;;;;5117148;28;20461;-80
2022/01/05 07:45:02;;;;;;;6.90;2.17;;;13.20;57.30;;;;;;5116996;28;20512;-80
2022/01/05 07:47:30;;;;;;;4.80;1.77;;;13.20;57.10;;;;;;5117772;28;20439;-80
2022/01/05 07:49:59;;;;;;;6.70;2.00;;;13.20;57.10;;;;;;5117212;28;20472;-79
2022/01/05 07:52:27;;;;;;;6.20;2.30;;;13.20;57.20;;;;;;5117471;28;20489;-80
2022/01/05 07:54:56;;;;;;;5.40;1.97;;;13.20;57.20;;;;;;5116915;28;20501;-79
2022/01/05 07:57:23;;;;;;;2.83;1.87;;;13.20;57.20;;;;;;5117128;28;20471;-80
2022/01/05 07:59:52;;;;;;;5.97;1.83;;;13.20;57.20;;;;;;5117020;28;20424;-80
2022/01/05 08:02:20;;;;;;;5.53;1.87;;;13.20;57.10;;;;;;5117272;28;20791;-80
2022/01/05 08:04:49;;;;;;;6.33;2.10;;;13.20;57.20;;;;;;5117185;28;20489;-80
2022/01/05 08:07:18;;;;;;;6.03;1.97;;;13.20;57.20;;;;;;5117084;28;20527;-80
2022/01/05 08:09:47;;;;;;;7.90;2.00;;;13.20;57.20;;;;;;5116978;28;20563;-80
2022/01/05 08:12:14;;;;;;;4.47;1.70;;;13.20;57.20;;;;;;5117018;28;20444;-80
2022/01/05 08:14:43;;;;;;;7.57;2.37;;;13.20;57.10;;;;;;5117006;28;20544;-81
2022/01/05 08:17:10;;;;;;;5.50;1.70;;;13.20;57.20;;;;;;5116921;28;20515;-80
2022/01/05 08:19:39;;;;;;;4.77;2.20;;;13.20;57.20;;;;;;5116901;28;20532;-79
2022/01/05 08:22:07;;;;;;;5.70;2.00;;;13.20;57.30;;;;;;5115770;28;20894;-81
2022/01/05 08:24:36;;;;;;;4.40;2.07;;;13.20;57.20;;;;;;5115856;28;20452;-79
2022/01/05 08:27:05;;;;;;;6.30;1.77;;;13.30;57.10;;;;;;5116227;28;20420;-79
2022/01/05 08:29:34;;;;;;;3.73;1.80;;;13.30;57.20;;;;;;5114456;28;20554;-80
2022/01/05 08:32:04;;;;;;;11.30;2.60;;;13.30;57.20;;;;;;5114684;28;20471;-80
2022/01/05 08:34:32;;;;;;;3.50;1.70;;;13.30;57.30;;;;;;5114524;28;20484;-79
2022/01/05 08:37:00;;;;;;;6.67;1.67;;;13.30;57.30;;;;;;5114242;28;20432;-79
2022/01/05 08:39:29;;;;;;;6.03;2.03;;;13.40;57.40;;;;;;5114760;28;20435;-79
2022/01/05 08:41:58;;;;;;;6.57;1.80;;;13.40;57.40;;;;;;5114412;28;20472;-79
2022/01/05 08:44:26;;;;;;;6.77;2.00;;;13.30;57.40;;;;;;5114643;28;20833;-79
2022/01/05 08:46:54;;;;;;;4.93;2.27;;;13.30;57.40;;;;;;5114668;28;20598;-79
2022/01/05 08:49:22;;;;;;;7.27;2.27;;;13.40;57.50;;;;;;5114634;28;20478;-79
2022/01/05 08:51:50;;;;;;;5.63;2.07;;;13.40;57.60;;;;;;5114772;28;20428;-79
2022/01/05 08:54:18;;;;;;;4.77;2.07;;;13.40;57.60;;;;;;5115119;28;20486;-79
2022/01/05 08:56:46;;;;;;;3.33;1.73;;;13.40;57.40;;;;;;5115148;28;20467;-80
2022/01/05 08:59:15;;;;;;;5.03;2.10;;;13.40;57.50;;;;;;5115333;28;20530;-80
2022/01/05 09:01:44;;;;;;;3.10;2.07;;;13.40;57.40;;;;;;5114967;28;20436;-79
2022/01/05 09:04:12;;;;;;;3.50;1.30;;;13.40;57.50;;;;;;5114348;28;20444;-80
2022/01/05 09:06:40;;;;;;;7.47;2.23;;;13.40;57.60;;;;;;5115185;28;20466;-80
2022/01/05 09:09:08;;;;;;;3.77;1.80;;;13.50;57.60;;;;;;5115677;28;20478;-80
2022/01/05 09:11:37;;;;;;;4.17;1.90;;;13.50;57.60;;;;;;5115568;28;20474;-80
2022/01/05 09:14:05;;;;;;;3.60;1.73;;;13.40;57.60;;;;;;5115938;28;20530;-80
2022/01/05 09:16:34;;;;;;;8.27;2.13;;;13.50;57.80;;;;;;5115433;28;20424;-80
2022/01/05 09:19:03;;;;;;;1.90;1.53;;;13.50;57.70;;;;;;5115869;28;20432;-81
2022/01/05 09:21:31;;;;;;;4.20;1.50;;;13.40;57.80;;;;;;5116224;28;20438;-80
2022/01/05 09:23:59;;;;;;;3.93;2.20;;;13.50;57.90;;;;;;5115639;28;20467;-80
2022/01/05 09:26:27;;;;;;;4.20;2.30;;;13.50;57.90;;;;;;5115336;28;20456;-80
2022/01/05 09:28:55;;;;;;;3.30;1.80;;;13.50;57.80;;;;;;5115892;28;20503;-80
2022/01/05 09:31:23;;;;;;;4.47;1.97;;;13.50;57.90;;;;;;5115763;28;20554;-80
2022/01/05 09:33:53;;;;;;;5.10;2.40;;;13.50;57.90;;;;;;5115346;28;20442;-81
2022/01/05 09:36:31;;;;;;;2.53;1.83;;;13.50;57.80;;;;;;5115906;28;20464;-79
2022/01/05 09:42:00;;;;;;;4.03;1.70;;;13.50;57.90;;;;;;5115881;28;20460;-80
2022/01/05 09:44:29;;;;;;;4.00;1.33;;;13.50;57.80;;;;;;5115589;28;20458;-80
2022/01/05 09:47:21;;;;;;;3.50;1.73;;;13.50;58.00;;;;;;5115760;28;20443;-80
2022/01/05 09:49:54;;;;;;;3.33;1.37;;;13.50;57.80;;;;;;5114864;28;20471;-79
2022/01/05 09:52:22;;;;;;;4.20;1.53;;;13.50;57.90;;;;;;5114831;28;20527;-80
2022/01/05 09:54:50;;;;;;;3.03;1.67;;;13.40;57.80;;;;;;5115340;28;20448;-80
2022/01/05 09:57:21;;;;;;;4.83;1.40;;;13.40;57.80;;;;;;5115185;28;20431;-80
2022/01/05 09:59:50;;;;;;;8.30;1.70;;;13.40;57.80;;;;;;5115377;28;20519;-80
2022/01/05 10:02:18;;;;;;;1.50;1.37;;;13.40;57.90;;;;;;5115299;28;20511;-80
2022/01/05 10:04:47;;;;;;;6.70;2.00;;;13.50;57.80;;;;;;5115413;28;20487;-80
2022/01/05 10:07:16;;;;;;;5.53;1.60;;;13.50;57.70;;;;;;5114816;28;20455;-79
2022/01/05 10:09:45;;;;;;;2.10;1.50;;;13.40;57.70;;;;;;5114489;28;20439;-80
2022/01/05 10:12:14;;;;;;;2.10;1.67;;;13.40;57.80;;;;;;5115178;28;20547;-80
2022/01/05 10:14:42;;;;;;;2.80;1.60;;;13.40;57.90;;;;;;5114582;28;20565;-80
2022/01/05 10:17:12;;;;;;;5.10;1.40;;;13.40;57.80;;;;;;5118057;28;20471;-80
2022/01/05 10:19:40;;;;;;;2.57;1.90;;;13.40;57.90;;;;;;5118390;28;20440;-79
2022/01/05 10:22:33;;;;;;;2.50;1.50;;;13.40;57.80;;;;;;5118840;28;20459;-81
2022/01/05 10:25:03;;;;;;;1.70;1.23;;;13.50;57.90;;;;;;5118323;28;20448;-80
2022/01/05 10:27:31;;;;;;;4.60;1.73;;;13.60;58.00;;;;;;5118531;28;20530;-80
2022/01/05 10:30:00;;;;;;;3.00;1.30;;;13.60;57.90;;;;;;5118679;28;20531;-80
2022/01/05 10:32:30;;;;;;;1.97;1.33;;;13.60;57.90;;;;;;5118823;28;20457;-80
2022/01/05 10:35:02;;;;;;;3.97;1.57;;;13.70;57.90;;;;;;5118902;28;20497;-80
2022/01/05 10:37:29;;;;;;;4.33;1.60;;;13.80;57.90;;;;;;5119188;28;20873;-80
2022/01/05 10:40:07;;;;;;;1.60;1.50;;;13.80;57.90;;;;;;5118386;28;20530;-80
2022/01/05 10:42:36;;;;;;;2.60;1.40;;;13.80;57.80;;;;;;5118651;28;20525;-80
2022/01/05 10:45:05;;;;;;;5.17;1.70;;;13.80;57.90;;;;;;5118623;28;20521;-80
2022/01/05 10:47:33;;;;;;;1.80;1.60;;;13.80;58.00;;;;;;5117855;28;20453;-80
2022/01/05 10:50:01;;;;;;;3.83;1.53;;;13.80;58.00;;;;;;5119428;28;20491;-79
2022/01/05 10:52:30;;;;;;;2.40;1.70;;;13.80;58.10;;;;;;5120794;28;20519;-79
2022/01/05 10:55:12;;;;;;;2.60;1.40;;;13.80;58.20;;;;;;5121017;28;20952;-79
2022/01/05 10:57:40;;;;;;;4.27;1.50;;;13.80;58.20;;;;;;5121738;28;20538;-79
2022/01/05 11:00:09;;;;;;;2.50;1.30;;;13.80;58.20;;;;;;5117592;28;20527;-80
2022/01/05 11:02:37;;;;;;;4.70;1.43;;;13.80;58.20;;;;;;5108238;28;20463;-79
2022/01/05 11:05:15;;;;;;;2.10;1.50;;;13.80;58.20;;;;;;5120802;28;20487;-79
2022/01/05 11:07:47;;;;;;;4.40;1.37;;;13.80;58.20;;;;;;5112147;28;20459;-79
2022/01/05 11:10:17;;;;;;;1.30;1.20;;;13.80;58.30;;;;;;5118184;28;20523;-79
2022/01/05 11:12:46;;;;;;;2.53;1.70;;;13.80;58.50;;;;;;5119995;28;20469;-79
2022/01/05 11:15:21;;;;;;;1.70;1.47;;;13.80;58.40;;;;;;5106794;28;20481;-79
2022/01/05 11:18:10;;;;;;;3.33;1.83;;;13.80;58.40;;;;;;5115350;28;20519;-79
2022/01/05 11:20:40;;;;;;;4.70;1.50;;;13.90;58.70;;;;;;5114252;28;20436;-79
2022/01/05 11:23:08;;;;;;;6.63;1.83;;;13.90;58.50;;;;;;5116637;28;20531;-83
2022/01/05 11:25:37;;;;;;;3.90;1.60;;;13.90;56.90;;;;;;5116036;28;20471;-81
2022/01/05 11:28:05;;;;;;;8.43;1.57;;;13.70;57.70;;;;;;5114288;28;20523;-81
2022/01/05 11:30:33;;;;;;;9.00;2.00;;;13.50;58.30;;;;;;5115877;28;20535;-80
2022/01/05 11:33:01;;;;;;;9.77;2.00;;;13.40;58.10;;;;;;5113937;28;20440;-80
2022/01/05 11:35:29;;;;;;;4.53;1.93;;;13.40;58.70;;;;;;5116269;28;20505;-80
2022/01/05 11:37:57;;;;;;;9.60;2.57;;;13.20;56.90;;;;;;5115652;28;20467;-82
2022/01/05 11:40:25;;;;;;;9.10;2.67;;;13.00;58.10;;;;;;5111713;28;20552;-81
2022/01/05 11:42:59;;;;;;;6.10;2.60;;;13.00;58.50;;;;;;5116395;28;20424;-82
2022/01/05 11:45:33;;;;;;;11.13;2.80;;;13.10;58.80;;;;;;5114513;28;20460;-82
2022/01/05 11:48:20;;;;;;;13.83;3.07;;;13.20;58.60;;;;;;5115500;28;20447;-81
2022/01/05 11:50:49;;;;;;;9.57;3.00;;;13.30;58.60;;;;;;5116398;28;20487;-80
2022/01/05 11:53:17;;;;;;;10.40;2.50;;;13.40;59.30;;;;;;5118339;28;20432;-81
2022/01/05 11:56:06;;;;;;;10.67;3.07;;;13.40;58.50;;;;;;5113969;28;20456;-81
2022/01/05 11:58:36;;;;;;;10.93;2.90;;;13.30;58.00;;;;;;5113429;28;20495;-80
2022/01/05 12:01:24;;;;;;;11.00;2.60;;;13.20;59.10;;;;;;5118823;28;20423;-80
2022/01/05 12:04:10;;;;;;;12.47;2.70;;;13.10;59.10;;;;;;5113477;28;20481;-79
2022/01/05 12:07:16;;;;;;;11.43;2.63;;;13.10;59.00;;;;;;5116880;28;20476;-81
2022/01/05 12:09:51;;;;;;;12.90;2.80;;;13.20;59.00;;;;;;5117672;28;20475;-80
2022/01/05 12:12:27;;;;;;;8.30;2.63;;;13.30;59.20;;;;;;5115868;28;20468;-79
2022/01/05 12:14:56;;;;;;;12.73;2.80;;;13.40;58.90;;;;;;5112177;28;20491;-80
2022/01/05 12:17:25;;;;;;;16.33;3.03;;;13.40;58.20;;;;;;5125667;28;20464;-80
2022/01/05 12:20:12;;;;;;;14.77;2.23;;;13.50;59.30;;;;;;5124011;28;20440;-80
2022/01/05 12:22:41;;;;;;;17.60;2.60;;;13.50;58.60;;;;;;5117017;28;20439;-80
2022/01/05 12:25:17;;;;;;;13.33;2.87;;;13.50;58.00;;;;;;5109497;28;20543;-80
2022/01/05 12:28:03;;;;;;;12.23;3.33;;;13.70;59.60;;;;;;5116467;28;20439;-80
2022/01/05 12:30:42;;;;;;;17.83;3.20;;;14.10;59.20;;;;;;5109928;28;20462;-81
2022/01/05 12:33:13;;;;;;;15.73;2.53;;;14.40;58.70;;;;;;5112875;28;20566;-83
2022/01/05 12:35:55;;;;;;;16.43;3.40;;;14.60;57.90;;;;;;5120721;28;20536;-83
2022/01/05 12:38:47;;;;;;;17.33;3.57;;;14.80;57.80;;;;;;5123724;28;20432;-81
2022/01/05 12:41:30;;;;;;;20.03;3.90;;;15.30;58.40;;;;;;5114522;28;21050;-82
2022/01/05 12:43:59;;;;;;;10.50;3.00;;;15.80;57.80;;;;;;5118902;28;20441;-83
2022/01/05 12:46:39;;;;;;;14.57;3.43;;;16.10;57.00;;;;;;5131371;28;20447;-83
2022/01/05 12:49:11;;;;;;;22.53;4.17;;;16.50;56.20;;;;;;5121627;28;20450;-83
2022/01/05 12:51:44;;;;;;;17.73;4.00;;;16.70;55.50;;;;;;5129880;28;20478;-83
2022/01/05 12:54:13;;;;;;;15.73;3.10;;;16.60;54.00;;;;;;5131404;28;20485;-83
2022/01/05 12:56:42;;;;;;;17.00;3.53;;;16.40;53.40;;;;;;5130482;28;20447;-83
2022/01/05 12:59:11;;;;;;;15.50;3.53;;;16.30;55.30;;;;;;5111503;28;20502;-83
2022/01/05 13:01:41;;;;;;;18.53;3.17;;;16.40;54.70;;;;;;5116534;28;20459;-83